Pagrindinis puslapis
METAR-TAF:

METAR-TAF

Oro uostai :

Naftos platforma

Norne Fpso, Norvegija

platuma: 66-01-48N, ilguma: 008-04-48E, Aukštis: 10 m

Dabartinis oras

Ataskaita buvo paskelbta 28 minutes, ne 22:20 UTC
Vėjas 17 kt iš Rytų
Temperatūra 13°C
Drėgmė 88%
Slėgis 1007 hPa
Matomumas 10 km arba daugiau
nėra debesų žemiau 1500 m ir nėra kamuolinių lietaus debesų

METAR: ENNE 162220Z AUTO 09017KT CAVOK 13/11 Q1007 W///S3

Laikas: 00:48 (22:48 UTC)

Prognozė

Ataskaita buvo paskelbta 11 valandos ir 24 minutes, ne 11:24 UTC
Prognozė galioja nuo 16 metu 11 UTC su 16 metu 17 UTC
Vėjas 15 kt iš Rytų/Šiaurės Rytų
Matomumas: 0100 m
ne aukštis 200 ft
rūkas
Tapsmas
nuo 16 metu 11 UTC su 16 metu 13 UTC
Matomumas 10 km arba daugiau
Išsisklaidę debesys ne aukštis 500 ft

TAF: ENNE 161124Z 1611/1617 07015KT 0100 FG VV002 BECMG 1611/1613 9999 NSW SCT005

Orai ataskaitas ir orų prognozės (METAR, TAF).

turimą stotys yra geltonos ir raudonos taškus žemėlapyje.

Perkelti pele per norėdami pamatyti stoties vardą.

Tada spustelėkite, norėdami matyti oro stebėjimo ir prognozės.

Norėdami pakeisti žemėlapį: spustelėkite ant žalios mygtukų su juodo kryžiaus žemyn,; žalią mygtuką su brūkšneliu, jei norite nutolinti; arba žalių rodyklių gretimoms žemėlapius.


METAR-TAF: